Time;durP1;ratioP1;P1;durP2;ratioP2;P2;SDS_P1;SDS_P2;PMS_P1;PMS_P2;Temp;Humidity;BMP_temperature;BMP_pressure;BME280_temperature;BME280_humidity;BME280_pressure;Samples;Min_cycle;Max_cycle;Signal;HPM_P1;HPM_P2
2022/01/16 00:00:48;;;;;;;52.97;23.80;;;;;;;;;;5044728;28;20030;-74
2022/01/16 00:05:59;;;;;;;48.00;24.47;;;;;;;;;;5029518;28;20041;-74
2022/01/16 00:08:25;;;;;;;48.50;22.60;;;;;;;;;;5029909;28;20039;-74
2022/01/16 00:10:50;;;;;;;49.03;22.47;;;;;;;;;;5029639;28;20139;-74
2022/01/16 00:13:16;;;;;;;46.07;22.47;;;;;;;;;;5029501;28;20128;-74
2022/01/16 00:15:44;;;;;;;48.13;23.40;;;;;;;;;;5031182;28;20033;-74
2022/01/16 00:18:26;;;;;;;45.80;23.67;;;;;;;;;;5032265;28;20057;-74
2022/01/16 00:20:51;;;;;;;50.95;21.73;;;;;;;;;;5030405;28;20029;-73
2022/01/16 00:23:26;;;;;;;44.87;22.40;;;;;;;;;;5030710;28;20503;-75
2022/01/16 00:25:53;;;;;;;50.23;21.47;;;;;;;;;;5028452;28;20691;-74
2022/01/16 00:28:20;;;;;;;43.20;21.20;;;;;;;;;;5029756;28;20017;-74
2022/01/16 00:30:48;;;;;;;49.60;25.30;;;;;;;;;;5028406;28;20433;-74
2022/01/16 00:33:14;;;;;;;45.57;24.57;;;;;;;;;;5029364;28;20052;-74
2022/01/16 00:35:39;;;;;;;54.63;23.43;;;;;;;;;;5028645;28;20033;-75
2022/01/16 00:38:05;;;;;;;55.03;27.27;;;;;;;;;;5029514;28;20463;-74
2022/01/16 00:40:31;;;;;;;65.63;25.60;;;;;;;;;;5032467;28;20021;-74
2022/01/16 00:42:57;;;;;;;58.53;25.57;;;;;;;;;;5031614;28;20127;-73
2022/01/16 00:45:28;;;;;;;50.47;23.40;;;;;;;;;;5033219;28;20094;-75
2022/01/16 00:47:54;;;;;;;59.47;26.17;;;;;;;;;;5032841;28;20033;-74
2022/01/16 00:50:19;;;;;;;57.27;24.20;;;;;;;;;;5032961;28;20026;-73
2022/01/16 00:52:45;;;;;;;49.97;25.20;;;;;;;;;;5047670;28;20123;-75
2022/01/16 00:55:11;;;;;;;55.50;25.87;;;;;;;;;;5031750;28;20089;-74
2022/01/16 00:57:36;;;;;;;58.73;26.80;;;;;;;;;;5047613;28;20037;-73
2022/01/16 01:00:05;;;;;;;58.87;25.30;;;;;;;;;;5032797;28;20200;-74
2022/01/16 01:02:30;;;;;;;49.07;22.93;;;;;;;;;;5033075;28;20029;-74
2022/01/16 01:04:56;;;;;;;51.57;23.27;;;;;;;;;;5032849;28;20059;-74
2022/01/16 01:07:21;;;;;;;50.53;24.40;;;;;;;;;;5032753;28;20148;-75
2022/01/16 01:09:47;;;;;;;46.67;24.77;;;;;;;;;;5047827;28;20107;-74
2022/01/16 01:12:24;;;;;;;53.17;24.43;;;;;;;;;;5032506;28;20501;-75
2022/01/16 01:15:09;;;;;;;56.70;24.50;;;;;;;;;;5032127;28;20040;-74
2022/01/16 01:17:43;;;;;;;56.97;24.13;;;;;;;;;;5031320;28;20051;-74
2022/01/16 01:20:12;;;;;;;53.93;24.97;;;;;;;;;;5031392;28;20049;-73
2022/01/16 01:22:37;;;;;;;52.17;23.77;;;;;;;;;;5033387;28;20052;-74
2022/01/16 01:25:03;;;;;;;49.47;24.20;;;;;;;;;;5032020;28;20025;-74
2022/01/16 01:27:33;;;;;;;46.80;23.27;;;;;;;;;;5032397;28;20543;-74
2022/01/16 01:30:06;;;;;;;51.53;24.37;;;;;;;;;;5031169;28;20107;-74
2022/01/16 01:32:41;;;;;;;57.53;26.33;;;;;;;;;;5032412;28;20028;-74
2022/01/16 01:35:10;;;;;;;52.73;24.77;;;;;;;;;;5032510;28;20521;-72
2022/01/16 01:37:36;;;;;;;50.30;24.63;;;;;;;;;;5047105;28;20025;-74
2022/01/16 01:40:04;;;;;;;52.00;24.60;;;;;;;;;;5032037;28;20076;-74
2022/01/16 01:42:33;;;;;;;57.27;26.10;;;;;;;;;;5031959;28;20077;-74
2022/01/16 01:53:15;;;;;;;47.03;23.77;;;;;;;;;;5032258;28;20036;-74
2022/01/16 01:55:45;;;;;;;56.97;25.93;;;;;;;;;;5031615;28;20080;-74
2022/01/16 01:58:11;;;;;;;62.60;25.80;;;;;;;;;;5030421;28;20051;-74
2022/01/16 02:00:38;;;;;;;56.10;26.70;;;;;;;;;;5031727;28;20040;-75
2022/01/16 02:03:16;;;;;;;54.17;25.93;;;;;;;;;;5046754;28;20132;-74
2022/01/16 02:05:42;;;;;;;49.90;25.63;;;;;;;;;;5030393;28;20052;-73
2022/01/16 02:08:08;;;;;;;60.70;24.30;;;;;;;;;;5031657;28;20040;-74
2022/01/16 02:10:39;;;;;;;55.03;26.77;;;;;;;;;;5031908;28;20025;-74
2022/01/16 02:13:08;;;;;;;54.40;26.37;;;;;;;;;;5031566;28;20175;-73
2022/01/16 02:34:39;;;;;;;54.23;23.97;;;;;;;;;;5031853;28;20079;-74
2022/01/16 02:37:08;;;;;;;62.63;26.33;;;;;;;;;;5046413;28;20041;-74
2022/01/16 02:39:36;;;;;;;62.53;27.03;;;;;;;;;;5031237;28;20041;-74
2022/01/16 02:42:07;;;;;;;60.20;25.60;;;;;;;;;;5046025;28;20111;-74
2022/01/16 02:44:45;;;;;;;57.37;27.10;;;;;;;;;;5046187;28;20028;-74
2022/01/16 02:47:13;;;;;;;53.80;23.50;;;;;;;;;;5030698;28;20076;-74
2022/01/16 02:49:41;;;;;;;62.13;25.70;;;;;;;;;;5030983;28;20045;-74
2022/01/16 02:52:18;;;;;;;55.20;24.00;;;;;;;;;;5030394;28;20308;-73
2022/01/16 02:54:46;;;;;;;58.57;25.53;;;;;;;;;;5028978;28;20036;-74
2022/01/16 02:57:15;;;;;;;54.37;24.13;;;;;;;;;;5028953;28;20111;-75
2022/01/16 02:59:47;;;;;;;60.33;23.50;;;;;;;;;;5030697;28;20053;-73
2022/01/16 03:02:14;;;;;;;54.90;23.60;;;;;;;;;;5028958;28;20052;-74
2022/01/16 03:04:40;;;;;;;51.27;22.87;;;;;;;;;;5030872;28;20033;-73
2022/01/16 03:07:06;;;;;;;53.37;24.90;;;;;;;;;;5045327;28;20033;-73
2022/01/16 03:12:26;;;;;;;52.70;24.10;;;;;;;;;;5014853;28;20063;-74
2022/01/16 03:14:51;;;;;;;48.47;24.17;;;;;;;;;;5045340;28;20033;-74
2022/01/16 03:17:34;;;;;;;57.40;24.67;;;;;;;;;;5030024;28;20037;-73
2022/01/16 03:22:43;;;;;;;58.10;22.50;;;;;;;;;;5030162;28;20033;-74
2022/01/16 03:25:09;;;;;;;47.70;22.33;;;;;;;;;;5045385;28;20439;-74
2022/01/16 03:27:36;;;;;;;43.43;21.67;;;;;;;;;;5029492;28;20152;-74
2022/01/16 03:30:02;;;;;;;54.40;24.17;;;;;;;;;;5030950;28;20013;-74
2022/01/16 03:32:27;;;;;;;50.83;22.87;;;;;;;;;;5029497;28;20561;-73
2022/01/16 03:34:53;;;;;;;50.93;22.00;;;;;;;;;;5030310;28;20113;-74
2022/01/16 03:37:18;;;;;;;53.53;24.80;;;;;;;;;;5028316;28;20029;-75
2022/01/16 03:39:44;;;;;;;54.53;24.40;;;;;;;;;;5029461;28;20030;-74
2022/01/16 03:42:10;;;;;;;49.83;22.80;;;;;;;;;;5061522;28;20053;-74
2022/01/16 03:44:35;;;;;;;56.43;24.83;;;;;;;;;;5028025;28;20477;-75
2022/01/16 03:47:01;;;;;;;56.87;23.20;;;;;;;;;;5044563;28;20465;-74
2022/01/16 03:49:29;;;;;;;52.27;23.00;;;;;;;;;;5044898;28;20025;-74
2022/01/16 03:51:56;;;;;;;55.03;22.10;;;;;;;;;;5028242;28;20052;-75
2022/01/16 03:54:30;;;;;;;49.10;23.63;;;;;;;;;;5045282;28;20021;-74
2022/01/16 03:56:56;;;;;;;47.90;24.23;;;;;;;;;;5044540;28;20083;-74
2022/01/16 03:59:22;;;;;;;46.27;21.63;;;;;;;;;;5029354;28;20049;-73
2022/01/16 04:01:49;;;;;;;57.00;23.97;;;;;;;;;;5029418;28;20030;-73
2022/01/16 04:04:15;;;;;;;56.30;24.50;;;;;;;;;;5028191;28;20112;-74
2022/01/16 04:06:40;;;;;;;59.77;24.03;;;;;;;;;;5029403;28;20100;-74
2022/01/16 04:09:06;;;;;;;60.83;22.30;;;;;;;;;;5029139;28;20108;-74
2022/01/16 04:11:32;;;;;;;49.27;23.97;;;;;;;;;;5029606;28;20474;-74
2022/01/16 04:14:10;;;;;;;49.30;23.27;;;;;;;;;;5029300;28;20028;-74
2022/01/16 04:16:37;;;;;;;46.43;22.50;;;;;;;;;;5029629;28;20021;-74
2022/01/16 04:19:04;;;;;;;48.10;22.50;;;;;;;;;;5029141;28;20116;-74
2022/01/16 04:21:29;;;;;;;51.90;22.53;;;;;;;;;;5028401;28;20523;-74
2022/01/16 04:23:56;;;;;;;49.93;22.83;;;;;;;;;;5029387;28;20045;-74
2022/01/16 04:26:25;;;;;;;52.73;22.53;;;;;;;;;;5029072;28;20044;-74
2022/01/16 04:28:51;;;;;;;55.70;21.87;;;;;;;;;;5028790;28;20073;-74
2022/01/16 04:31:18;;;;;;;48.57;23.47;;;;;;;;;;5029643;28;20018;-75
2022/01/16 04:33:44;;;;;;;51.37;21.57;;;;;;;;;;5029559;28;20025;-74
2022/01/16 04:36:10;;;;;;;49.67;22.53;;;;;;;;;;5028656;28;20033;-74
2022/01/16 04:38:38;;;;;;;51.00;22.27;;;;;;;;;;5029898;28;20402;-75
2022/01/16 04:43:49;;;;;;;48.83;22.07;;;;;;;;;;5029304;28;20045;-74
2022/01/16 04:46:15;;;;;;;48.30;22.47;;;;;;;;;;5029257;28;20056;-74
2022/01/16 04:48:41;;;;;;;46.17;23.20;;;;;;;;;;5029411;28;20313;-74
2022/01/16 04:51:07;;;;;;;52.20;22.57;;;;;;;;;;5044475;28;20033;-75
2022/01/16 04:53:32;;;;;;;46.00;21.03;;;;;;;;;;5044322;28;20033;-75
2022/01/16 04:55:58;;;;;;;52.83;23.33;;;;;;;;;;5028706;28;20037;-74
2022/01/16 04:58:23;;;;;;;44.57;20.90;;;;;;;;;;5028903;28;20362;-73
2022/01/16 05:00:49;;;;;;;45.60;21.53;;;;;;;;;;5028728;28;20022;-73
2022/01/16 05:03:15;;;;;;;48.63;22.13;;;;;;;;;;5028927;28;20037;-74
2022/01/16 05:05:41;;;;;;;48.10;22.33;;;;;;;;;;5044262;28;20052;-74
2022/01/16 05:08:06;;;;;;;44.07;21.40;;;;;;;;;;5044456;28;20029;-74
2022/01/16 05:10:32;;;;;;;54.97;23.17;;;;;;;;;;5029032;28;20100;-74
2022/01/16 05:13:16;;;;;;;48.57;19.50;;;;;;;;;;5030108;28;20152;-74
2022/01/16 05:18:25;;;;;;;45.43;19.60;;;;;;;;;;5010475;28;20103;-73
2022/01/16 05:20:51;;;;;;;44.03;19.17;;;;;;;;;;5009693;28;20450;-74
2022/01/16 05:23:16;;;;;;;45.00;19.37;;;;;;;;;;5009668;28;20483;-73
2022/01/16 05:25:42;;;;;;;41.33;19.70;;;;;;;;;;5010807;28;20439;-74
2022/01/16 05:28:09;;;;;;;46.53;18.77;;;;;;;;;;5017513;28;20029;-74
2022/01/16 05:30:37;;;;;;;46.83;20.30;;;;;;;;;;5031406;28;20113;-74
2022/01/16 05:33:03;;;;;;;40.27;17.87;;;;;;;;;;5033062;28;20053;-74
2022/01/16 05:35:28;;;;;;;42.83;20.90;;;;;;;;;;5048491;28;20041;-74
2022/01/16 05:37:54;;;;;;;43.93;20.30;;;;;;;;;;5031065;28;20026;-73
2022/01/16 05:40:21;;;;;;;42.93;20.63;;;;;;;;;;5032410;28;20112;-74
2022/01/16 05:42:47;;;;;;;46.07;19.83;;;;;;;;;;5030975;28;20053;-73
2022/01/16 05:45:12;;;;;;;42.03;17.90;;;;;;;;;;5031066;28;20039;-74
2022/01/16 05:47:38;;;;;;;46.63;21.13;;;;;;;;;;5032459;28;20108;-73
2022/01/16 05:50:05;;;;;;;42.67;17.60;;;;;;;;;;5032496;28;20026;-73
2022/01/16 05:52:30;;;;;;;42.30;19.40;;;;;;;;;;5064348;28;20499;-75
2022/01/16 05:54:56;;;;;;;44.67;21.27;;;;;;;;;;5031379;28;20119;-74
2022/01/16 05:57:21;;;;;;;51.20;20.37;;;;;;;;;;5032602;28;20033;-74
2022/01/16 05:59:47;;;;;;;46.10;19.13;;;;;;;;;;5031874;28;20357;-74
2022/01/16 06:02:13;;;;;;;48.93;18.53;;;;;;;;;;5047302;28;20366;-74
2022/01/16 06:04:39;;;;;;;47.70;21.07;;;;;;;;;;5031870;28;20037;-73
2022/01/16 06:07:06;;;;;;;43.30;19.10;;;;;;;;;;5032011;28;20033;-75
2022/01/16 06:09:31;;;;;;;46.33;20.00;;;;;;;;;;5032178;28;20022;-74
2022/01/16 06:11:57;;;;;;;49.10;20.03;;;;;;;;;;5032133;28;20036;-74
2022/01/16 06:14:23;;;;;;;56.57;20.20;;;;;;;;;;5047216;28;20037;-74
2022/01/16 06:16:50;;;;;;;43.87;19.13;;;;;;;;;;5032059;28;20045;-74
2022/01/16 06:19:16;;;;;;;43.90;20.33;;;;;;;;;;5047235;28;20041;-74
2022/01/16 06:21:42;;;;;;;42.90;19.07;;;;;;;;;;5063840;28;20040;-75
2022/01/16 06:24:07;;;;;;;49.43;20.33;;;;;;;;;;5032080;28;20039;-74
2022/01/16 06:26:33;;;;;;;47.47;19.47;;;;;;;;;;5031767;28;20475;-74
2022/01/16 06:28:59;;;;;;;44.93;20.57;;;;;;;;;;5031652;28;20466;-73
2022/01/16 06:31:24;;;;;;;44.70;19.93;;;;;;;;;;5031664;28;20441;-74
2022/01/16 06:33:50;;;;;;;48.43;20.37;;;;;;;;;;5031673;28;20112;-74
2022/01/16 06:36:16;;;;;;;47.70;18.87;;;;;;;;;;5028910;28;20036;-74
2022/01/16 06:38:42;;;;;;;50.17;20.53;;;;;;;;;;5029844;28;20037;-74
2022/01/16 06:41:09;;;;;;;37.77;18.00;;;;;;;;;;5029690;28;20040;-74
2022/01/16 06:43:34;;;;;;;51.10;22.47;;;;;;;;;;5047210;28;20042;-74
2022/01/16 06:46:00;;;;;;;44.67;19.60;;;;;;;;;;5034272;28;20088;-74
2022/01/16 06:48:25;;;;;;;39.90;19.43;;;;;;;;;;5050490;28;20095;-74
2022/01/16 06:50:51;;;;;;;49.03;19.03;;;;;;;;;;5030866;28;20044;-74
2022/01/16 06:53:16;;;;;;;45.10;20.43;;;;;;;;;;5029756;28;20230;-74
2022/01/16 06:55:42;;;;;;;49.67;20.67;;;;;;;;;;5046429;28;20037;-73
2022/01/16 06:58:07;;;;;;;44.30;19.87;;;;;;;;;;5046511;28;20026;-75
2022/01/16 07:00:33;;;;;;;46.23;21.00;;;;;;;;;;5031316;28;20053;-75
2022/01/16 07:02:59;;;;;;;48.03;19.67;;;;;;;;;;5031000;28;20107;-74
2022/01/16 07:05:24;;;;;;;42.27;19.57;;;;;;;;;;5031235;28;20397;-73
2022/01/16 07:07:50;;;;;;;38.57;18.83;;;;;;;;;;5046053;28;20056;-74
2022/01/16 07:10:15;;;;;;;44.77;20.33;;;;;;;;;;5030780;28;20026;-74
2022/01/16 07:12:41;;;;;;;39.00;18.80;;;;;;;;;;5046006;28;20140;-74
2022/01/16 07:15:06;;;;;;;46.50;20.70;;;;;;;;;;5030899;28;20474;-74
2022/01/16 07:17:32;;;;;;;48.63;20.57;;;;;;;;;;5031107;28;20036;-74
2022/01/16 07:19:57;;;;;;;40.67;20.10;;;;;;;;;;5046652;28;20498;-74
2022/01/16 07:22:23;;;;;;;42.13;19.70;;;;;;;;;;5029652;28;20059;-74
2022/01/16 07:24:52;;;;;;;41.00;19.13;;;;;;;;;;5048250;28;20025;-74
2022/01/16 07:27:19;;;;;;;54.10;22.40;;;;;;;;;;5031606;28;20037;-75
2022/01/16 07:29:45;;;;;;;44.27;20.47;;;;;;;;;;5030717;28;20029;-73
2022/01/16 07:32:11;;;;;;;46.83;20.27;;;;;;;;;;5030912;28;20123;-76
2022/01/16 07:34:36;;;;;;;40.77;20.13;;;;;;;;;;5046153;28;20315;-74
2022/01/16 07:37:02;;;;;;;45.47;19.93;;;;;;;;;;5030923;28;20037;-74
2022/01/16 07:39:28;;;;;;;48.50;20.47;;;;;;;;;;5030469;28;20033;-73
2022/01/16 07:41:53;;;;;;;42.47;19.87;;;;;;;;;;5045618;28;20049;-76
2022/01/16 07:44:18;;;;;;;43.83;21.20;;;;;;;;;;5045216;28;20030;-74
2022/01/16 07:46:44;;;;;;;46.60;19.00;;;;;;;;;;5029020;28;20057;-74
2022/01/16 07:49:09;;;;;;;41.47;18.03;;;;;;;;;;5045298;28;20249;-76
2022/01/16 07:51:35;;;;;;;36.80;18.73;;;;;;;;;;5030976;28;20033;-74
2022/01/16 07:54:02;;;;;;;45.67;19.17;;;;;;;;;;5030793;28;20045;-74
2022/01/16 07:56:28;;;;;;;40.20;17.60;;;;;;;;;;5030919;28;20389;-74
2022/01/16 07:58:53;;;;;;;45.37;19.27;;;;;;;;;;5030397;28;20485;-73
2022/01/16 08:01:19;;;;;;;50.07;19.87;;;;;;;;;;5045307;28;20036;-74
2022/01/16 08:03:45;;;;;;;46.90;18.83;;;;;;;;;;5030212;28;20069;-73
2022/01/16 08:06:13;;;;;;;38.30;18.07;;;;;;;;;;5027243;28;20132;-74
2022/01/16 08:08:39;;;;;;;35.77;17.57;;;;;;;;;;5029876;28;20056;-75
2022/01/16 08:11:04;;;;;;;42.37;19.50;;;;;;;;;;5029872;28;20025;-74
2022/01/16 08:13:30;;;;;;;47.70;18.70;;;;;;;;;;5029766;28;20021;-73
2022/01/16 08:15:55;;;;;;;45.30;18.87;;;;;;;;;;5045007;28;20029;-74
2022/01/16 08:18:21;;;;;;;37.93;16.60;;;;;;;;;;5028749;28;20394;-74
2022/01/16 08:20:47;;;;;;;41.13;19.17;;;;;;;;;;5030159;28;20775;-73
2022/01/16 08:23:13;;;;;;;39.10;16.93;;;;;;;;;;5029642;28;20034;-74
2022/01/16 08:25:39;;;;;;;37.63;16.13;;;;;;;;;;5029857;28;20378;-74
2022/01/16 08:28:05;;;;;;;38.77;16.53;;;;;;;;;;5028314;28;20029;-74
2022/01/16 08:30:30;;;;;;;40.77;17.67;;;;;;;;;;5030018;28;20025;-75
2022/01/16 08:32:56;;;;;;;39.87;16.80;;;;;;;;;;5030110;28;20072;-75
2022/01/16 08:35:22;;;;;;;38.30;16.97;;;;;;;;;;5061744;28;20036;-73
2022/01/16 08:37:48;;;;;;;39.33;16.50;;;;;;;;;;5029885;28;20390;-74
2022/01/16 08:40:14;;;;;;;40.43;16.03;;;;;;;;;;5030375;28;20037;-74
2022/01/16 08:42:40;;;;;;;39.83;16.97;;;;;;;;;;5029287;28;20127;-73
2022/01/16 08:45:07;;;;;;;39.97;16.53;;;;;;;;;;5030687;28;20038;-74
2022/01/16 08:47:32;;;;;;;37.07;16.47;;;;;;;;;;5031272;28;20033;-75
2022/01/16 08:49:58;;;;;;;42.83;18.07;;;;;;;;;;5030788;28;20021;-74
2022/01/16 08:52:27;;;;;;;44.90;18.53;;;;;;;;;;5044749;28;20430;-74
2022/01/16 08:54:52;;;;;;;36.73;16.27;;;;;;;;;;5030587;28;20439;-74
2022/01/16 08:57:18;;;;;;;40.93;18.00;;;;;;;;;;5030079;28;20112;-73
2022/01/16 08:59:43;;;;;;;39.47;15.53;;;;;;;;;;5029495;28;20029;-74
2022/01/16 09:02:09;;;;;;;39.23;16.93;;;;;;;;;;5031924;28;20033;-74
2022/01/16 09:04:34;;;;;;;40.63;16.10;;;;;;;;;;5048715;28;20025;-74
2022/01/16 09:07:01;;;;;;;36.87;16.87;;;;;;;;;;5032027;28;20040;-74
2022/01/16 09:09:27;;;;;;;32.57;15.03;;;;;;;;;;5048148;28;20037;-75
2022/01/16 09:11:52;;;;;;;32.87;15.43;;;;;;;;;;5048687;28;20116;-75
2022/01/16 09:14:18;;;;;;;35.40;14.17;;;;;;;;;;5032787;28;20056;-74
2022/01/16 09:16:43;;;;;;;32.97;14.10;;;;;;;;;;5033360;28;20031;-74
2022/01/16 09:19:09;;;;;;;35.80;15.93;;;;;;;;;;5048693;28;20128;-74
2022/01/16 09:21:36;;;;;;;37.43;15.60;;;;;;;;;;5033485;28;20044;-75
2022/01/16 09:24:01;;;;;;;35.83;14.00;;;;;;;;;;5048515;28;20036;-75
2022/01/16 09:26:27;;;;;;;33.97;15.13;;;;;;;;;;5033070;28;20025;-74
2022/01/16 09:28:53;;;;;;;28.37;13.33;;;;;;;;;;5032048;28;20500;-74
2022/01/16 09:31:19;;;;;;;29.53;13.30;;;;;;;;;;5031703;28;20025;-75
2022/01/16 09:33:45;;;;;;;30.43;13.97;;;;;;;;;;5033037;28;20039;-75
2022/01/16 09:36:11;;;;;;;29.13;12.87;;;;;;;;;;5032825;28;20588;-74
2022/01/16 09:38:37;;;;;;;35.73;15.33;;;;;;;;;;5048524;28;20030;-74
2022/01/16 09:41:04;;;;;;;30.40;14.33;;;;;;;;;;5032586;28;20041;-75
2022/01/16 09:43:32;;;;;;;30.87;13.40;;;;;;;;;;5032577;28;20057;-73
2022/01/16 09:45:58;;;;;;;28.97;12.73;;;;;;;;;;5048137;28;20102;-74
2022/01/16 09:48:24;;;;;;;32.43;14.13;;;;;;;;;;5032943;28;20036;-75
2022/01/16 09:50:50;;;;;;;26.33;12.90;;;;;;;;;;5032877;28;20029;-73
2022/01/16 09:53:17;;;;;;;28.97;12.20;;;;;;;;;;5033250;28;20102;-75
2022/01/16 09:55:42;;;;;;;32.10;13.53;;;;;;;;;;5047856;28;20045;-74
2022/01/16 09:58:08;;;;;;;31.07;13.97;;;;;;;;;;5032687;28;20037;-75
2022/01/16 10:00:35;;;;;;;29.47;15.47;;;;;;;;;;5014818;28;20040;-74
2022/01/16 10:03:02;;;;;;;40.27;15.80;;;;;;;;;;5047536;28;20033;-74
2022/01/16 10:05:32;;;;;;;32.87;15.07;;;;;;;;;;5031789;28;20132;-75
2022/01/16 10:08:00;;;;;;;40.03;14.73;;;;;;;;;;5033894;28;20033;-75
2022/01/16 10:10:28;;;;;;;28.10;13.70;;;;;;;;;;5033013;28;20417;-76
2022/01/16 10:13:03;;;;;;;31.27;14.07;;;;;;;;;;5031549;28;20076;-74
2022/01/16 10:15:29;;;;;;;38.63;15.83;;;;;;;;;;5011475;28;20109;-74
2022/01/16 10:17:57;;;;;;;29.73;15.90;;;;;;;;;;5027429;28;20478;-74
2022/01/16 10:20:24;;;;;;;34.13;15.33;;;;;;;;;;5011139;28;20033;-74
2022/01/16 10:22:58;;;;;;;34.93;14.23;;;;;;;;;;5012722;28;20406;-74
2022/01/16 10:25:47;;;;;;;34.07;15.40;;;;;;;;;;5012089;28;20454;-75
2022/01/16 10:28:17;;;;;;;33.07;16.27;;;;;;;;;;5017621;28;20033;-73
2022/01/16 10:30:51;;;;;;;36.43;16.40;;;;;;;;;;5031869;28;20049;-75
2022/01/16 10:33:21;;;;;;;43.30;14.53;;;;;;;;;;5030396;28;20059;-75
2022/01/16 10:35:50;;;;;;;28.67;14.33;;;;;;;;;;5030177;28;20035;-75
2022/01/16 10:38:23;;;;;;;33.47;15.50;;;;;;;;;;5031970;28;20060;-75
2022/01/16 10:40:50;;;;;;;38.17;16.77;;;;;;;;;;5047093;28;20039;-74
2022/01/16 10:43:35;;;;;;;37.40;15.97;;;;;;;;;;5033340;28;20056;-74
2022/01/16 10:46:00;;;;;;;36.33;16.13;;;;;;;;;;5046852;28;20024;-74
2022/01/16 10:48:27;;;;;;;37.90;16.80;;;;;;;;;;5030420;28;20021;-75
2022/01/16 10:50:53;;;;;;;33.87;15.53;;;;;;;;;;5030554;28;20373;-75
2022/01/16 10:53:26;;;;;;;39.03;15.37;;;;;;;;;;5029687;28;20021;-76
2022/01/16 10:55:57;;;;;;;38.23;16.00;;;;;;;;;;5030348;28;20108;-76
2022/01/16 10:58:35;;;;;;;37.77;15.63;;;;;;;;;;5031552;28;20146;-75
2022/01/16 11:01:07;;;;;;;34.37;14.03;;;;;;;;;;5031545;28;20025;-75
2022/01/16 11:03:46;;;;;;;;;;;;;;;;;;5050782;28;20488;-74
2022/01/16 11:06:18;;;;;;;38.97;15.33;;;;;;;;;;5047033;28;19916;-74
2022/01/16 11:08:59;;;;;;;34.55;14.90;;;;;;;;;;5031587;28;20036;-73
2022/01/16 11:11:26;;;;;;;33.67;13.80;;;;;;;;;;5030330;28;20033;-74
2022/01/16 11:13:54;;;;;;;31.43;15.93;;;;;;;;;;5030725;28;20129;-75
2022/01/16 11:16:22;;;;;;;38.90;15.70;;;;;;;;;;5030602;28;20367;-75
2022/01/16 11:18:49;;;;;;;34.57;14.93;;;;;;;;;;5030573;28;20028;-75
2022/01/16 11:21:31;;;;;;;34.93;15.60;;;;;;;;;;5031443;28;20034;-76
2022/01/16 11:26:44;;;;;;;37.90;16.67;;;;;;;;;;5032311;28;20378;-75
2022/01/16 11:29:11;;;;;;;31.27;14.67;;;;;;;;;;5030925;28;20071;-75
2022/01/16 11:31:37;;;;;;;38.17;17.40;;;;;;;;;;5063064;28;20473;-75
2022/01/16 11:34:04;;;;;;;33.70;14.43;;;;;;;;;;5029712;28;20041;-74
2022/01/16 11:36:30;;;;;;;29.07;14.73;;;;;;;;;;5030435;28;20041;-73
2022/01/16 11:39:01;;;;;;;34.07;13.93;;;;;;;;;;5029391;28;20481;-75
2022/01/16 11:41:35;;;;;;;37.27;15.40;;;;;;;;;;5029268;28;20057;-74
2022/01/16 11:44:07;;;;;;;34.90;14.97;;;;;;;;;;5061864;28;20025;-74
2022/01/16 11:46:55;;;;;;;35.78;15.75;;;;;;;;;;5030320;28;20026;-74
2022/01/16 11:49:42;;;;;;;32.53;13.80;;;;;;;;;;5029278;28;20112;-74
2022/01/16 11:52:12;;;;;;;36.23;14.73;;;;;;;;;;5029516;28;20048;-75
2022/01/16 11:54:49;;;;;;;34.67;14.73;;;;;;;;;;5030784;28;20100;-74
2022/01/16 11:57:21;;;;;;;37.87;15.83;;;;;;;;;;5030236;28;20029;-75
2022/01/16 11:59:54;;;;;;;31.13;14.47;;;;;;;;;;5028624;28;20025;-73
2022/01/16 12:02:25;;;;;;;35.80;15.77;;;;;;;;;;5028640;28;20033;-73
2022/01/16 12:04:57;;;;;;;30.67;14.40;;;;;;;;;;5029020;28;20044;-74
2022/01/16 12:07:35;;;;;;;30.40;13.53;;;;;;;;;;5029837;28;20051;-74
2022/01/16 12:10:01;;;;;;;34.03;16.57;;;;;;;;;;5045629;28;20017;-75
2022/01/16 12:12:27;;;;;;;35.97;15.23;;;;;;;;;;5028826;28;20124;-74
2022/01/16 12:14:53;;;;;;;27.77;14.20;;;;;;;;;;5030173;28;20021;-74
2022/01/16 12:17:43;;;;;;;31.77;14.33;;;;;;;;;;5029455;28;20039;-74
2022/01/16 12:20:21;;;;;;;39.13;14.60;;;;;;;;;;5032375;28;20036;-75
2022/01/16 12:22:50;;;;;;;29.60;15.73;;;;;;;;;;5029988;28;20417;-75
2022/01/16 12:25:17;;;;;;;31.47;15.50;;;;;;;;;;5030827;28;20099;-75
2022/01/16 12:27:47;;;;;;;33.10;15.03;;;;;;;;;;5029707;28;20047;-75
2022/01/16 12:30:45;;;;;;;32.27;14.80;;;;;;;;;;5030257;28;20046;-75
2022/01/16 12:33:36;;;;;;;33.43;15.40;;;;;;;;;;5025727;28;20045;-74
2022/01/16 12:36:13;;;;;;;30.60;13.80;;;;;;;;;;5032069;28;20083;-74
2022/01/16 12:38:49;;;;;;;32.27;15.03;;;;;;;;;;5034771;28;20033;-74
2022/01/16 12:41:35;;;;;;;31.07;13.10;;;;;;;;;;5033282;28;20048;-75
2022/01/16 12:44:04;;;;;;;24.77;13.43;;;;;;;;;;5049175;28;20049;-74
2022/01/16 12:46:37;;;;;;;24.37;11.47;;;;;;;;;;5033558;28;20029;-74
2022/01/16 12:49:13;;;;;;;26.60;12.77;;;;;;;;;;5034457;28;20025;-75
2022/01/16 12:51:41;;;;;;;27.00;11.87;;;;;;;;;;5049292;28;20030;-74
2022/01/16 12:54:09;;;;;;;26.87;11.47;;;;;;;;;;5034048;28;20017;-73
2022/01/16 12:56:42;;;;;;;23.47;10.90;;;;;;;;;;5033707;28;20048;-75
2022/01/16 12:59:11;;;;;;;22.80;8.87;;;;;;;;;;5048743;28;20033;-74
2022/01/16 13:01:42;;;;;;;17.80;10.10;;;;;;;;;;5033867;28;20534;-73
2022/01/16 13:04:20;;;;;;;21.13;9.23;;;;;;;;;;5038046;28;20021;-74
2022/01/16 13:06:46;;;;;;;19.73;8.10;;;;;;;;;;5037952;28;20109;-74
2022/01/16 13:09:14;;;;;;;19.00;8.13;;;;;;;;;;5034023;28;20112;-75
2022/01/16 13:11:47;;;;;;;15.23;7.57;;;;;;;;;;5037078;28;20144;-74
2022/01/16 13:14:23;;;;;;;16.43;8.23;;;;;;;;;;5032853;28;20028;-73
2022/01/16 13:16:59;;;;;;;17.53;9.20;;;;;;;;;;5031708;28;20021;-73
2022/01/16 13:19:26;;;;;;;14.60;6.47;;;;;;;;;;5031729;28;20033;-75
2022/01/16 13:22:03;;;;;;;21.83;8.37;;;;;;;;;;5031888;28;20087;-74
2022/01/16 13:24:40;;;;;;;17.93;8.13;;;;;;;;;;5032965;28;20022;-74
2022/01/16 13:27:15;;;;;;;16.37;7.40;;;;;;;;;;5031435;28;20029;-74
2022/01/16 13:29:49;;;;;;;15.03;7.40;;;;;;;;;;5031373;28;20495;-75
2022/01/16 13:32:17;;;;;;;16.43;7.93;;;;;;;;;;5031727;28;20030;-75
2022/01/16 13:34:47;;;;;;;15.97;8.00;;;;;;;;;;5032744;28;20552;-73
2022/01/16 13:37:36;;;;;;;15.53;7.27;;;;;;;;;;5033176;28;20068;-74
2022/01/16 13:40:08;;;;;;;18.90;8.23;;;;;;;;;;5033019;28;20037;-75
2022/01/16 13:45:17;;;;;;;15.27;7.50;;;;;;;;;;5033475;28;20037;-74
2022/01/16 13:47:54;;;;;;;16.33;7.93;;;;;;;;;;5032000;28;20025;-74
2022/01/16 13:50:24;;;;;;;15.90;7.60;;;;;;;;;;5032565;28;20017;-74
2022/01/16 13:52:59;;;;;;;18.53;9.03;;;;;;;;;;5031662;28;20025;-74
2022/01/16 13:55:26;;;;;;;14.00;7.67;;;;;;;;;;5047704;28;20037;-74
2022/01/16 13:57:55;;;;;;;15.90;8.13;;;;;;;;;;5032414;28;20083;-74
2022/01/16 14:00:29;;;;;;;17.20;7.93;;;;;;;;;;5030777;28;20080;-74
2022/01/16 14:03:13;;;;;;;13.07;7.27;;;;;;;;;;5032666;28;20040;-73
2022/01/16 14:05:45;;;;;;;13.70;7.13;;;;;;;;;;5031625;28;20151;-73
2022/01/16 14:08:18;;;;;;;17.83;7.72;;;;;;;;;;5064204;28;20025;-74
2022/01/16 14:10:43;;;;;;;15.37;6.67;;;;;;;;;;5032972;28;20025;-75
2022/01/16 14:13:10;;;;;;;13.17;7.00;;;;;;;;;;5032489;28;20120;-74
2022/01/16 14:15:40;;;;;;;13.47;6.93;;;;;;;;;;5032053;28;20032;-74
2022/01/16 14:18:14;;;;;;;17.70;7.57;;;;;;;;;;5032063;28;20533;-74
2022/01/16 14:20:52;;;;;;;18.67;8.53;;;;;;;;;;5032319;28;20033;-76
2022/01/16 14:23:18;;;;;;;13.13;6.60;;;;;;;;;;5032090;28;20385;-74
2022/01/16 14:25:43;;;;;;;11.83;6.83;;;;;;;;;;5032082;28;20474;-75
2022/01/16 14:28:09;;;;;;;14.73;6.67;;;;;;;;;;5031722;28;20049;-74
2022/01/16 14:30:35;;;;;;;13.60;7.07;;;;;;;;;;5046988;28;20029;-73
2022/01/16 14:33:00;;;;;;;13.13;6.37;;;;;;;;;;5031855;28;20101;-74
2022/01/16 14:35:26;;;;;;;16.23;7.47;;;;;;;;;;5031928;28;20021;-74
2022/01/16 14:37:51;;;;;;;12.57;6.63;;;;;;;;;;5031628;28;20104;-75
2022/01/16 14:40:17;;;;;;;12.00;6.27;;;;;;;;;;5031787;28;20466;-75
2022/01/16 14:42:45;;;;;;;15.50;6.50;;;;;;;;;;5031470;28;20069;-74
2022/01/16 14:45:11;;;;;;;11.60;6.80;;;;;;;;;;5030452;28;20492;-74
2022/01/16 14:47:38;;;;;;;13.13;6.57;;;;;;;;;;5029908;28;20025;-74
2022/01/16 14:50:05;;;;;;;12.63;6.80;;;;;;;;;;5031595;28;20036;-74
2022/01/16 14:52:31;;;;;;;12.73;6.33;;;;;;;;;;5031232;28;20033;-74
2022/01/16 14:54:56;;;;;;;11.17;6.17;;;;;;;;;;5031383;28;20336;-74
2022/01/16 14:57:23;;;;;;;13.20;7.23;;;;;;;;;;5029536;28;20038;-74
2022/01/16 14:59:51;;;;;;;13.03;6.67;;;;;;;;;;5030773;28;20155;-74
2022/01/16 15:02:17;;;;;;;14.87;7.60;;;;;;;;;;5031253;28;20029;-75
2022/01/16 15:04:43;;;;;;;12.70;6.07;;;;;;;;;;5029996;28;20025;-74
2022/01/16 15:07:09;;;;;;;81.03;42.73;;;;;;;;;;5031610;28;20022;-74
2022/01/16 15:09:35;;;;;;;13.23;7.30;;;;;;;;;;5063356;28;20029;-75
2022/01/16 15:12:01;;;;;;;11.43;5.90;;;;;;;;;;5031500;28;20029;-74